Terminal Aerodrome Forecast
Issued by NWS

Home | Current Version | Previous Version | Text Only | Print | Product List | Glossary On
Versions: 1 2 3 4 5 6 7 8 9 10 11 12 13 14 15 16 17 18 19 20 21
942
FTUS46 KSTO 212320
TAFRBL
TAF
KRBL 212320Z 2200/2224 15011KT P6SM VCSH SCT060
     FM220200 17008KT P6SM SCT080
     FM222000 16006KT P6SM BKN100
      TEMPO 2220/2224 P6SM -SHRA BKN080=

USA.gov is the U.S. government's official web portal to all federal, state and local government web resources and services.